<?xml version="1.0" encoding="UTF-8" standalone="no" ?>
<gpx xmlns="http://www.topografix.com/GPX/1/1" creator="CompeGPS" version="1.1" xmlns:xsi="http://www.w3.org/2001/XMLSchema-instance" xsi:schemaLocation="http://www.topografix.com/GPX/1/1 http://www.topografix.com/GPX/1/1/gpx.xsd http://www.garmin.com/xmlschemas/GpxExtensions/v3 http://www.garmin.com/xmlschemas/GpxExtensionsv3.xsd http://www.garmin.com/xmlschemas/TrackPointExtension/v1 http://www.garmin.com/xmlschemas/TrackPointExtensionv1.xsd" xmlns:gpxtpx="http://www.garmin.com/xmlschemas/TrackPointExtension/v1">
  <metadata>
    <link href="http://www.compegps.com">
      <text>CompeGPS TEAM, SL</text>
    </link>
    <time>2014-02-09T19:25:29Z</time>
    <bounds maxlat="43.545530" maxlon="1.594797" minlat="43.530544" minlon="1.565497"/>
  </metadata>
<wpt lat="43.541974" lon="1.566165">
  <ele>190</ele>
  <name>Auzielle</name>
</wpt>
<wpt lat="43.543881" lon="1.571888">
  <ele>160</ele>
  <name>La Palanque</name>
</wpt>
<wpt lat="43.545530" lon="1.574208">
  <ele>155</ele>
  <name>Borde Grande</name>
</wpt>
<wpt lat="43.530544" lon="1.592474">
  <ele>165</ele>
  <name>La Pigeoniere</name>
</wpt>
<wpt lat="43.538754" lon="1.581232">
  <ele>160</ele>
  <name>Buguet</name>
</wpt>
<trk>
    <name>Auzielle</name>
    <trkseg>
      <trkpt lat="43.541974" lon="1.566165">
        <ele>195.5</ele>
        <time>2014-02-09T08:34:54Z</time>
        <name>Auzielle</name>
      </trkpt>
      <trkpt lat="43.541963" lon="1.566177">
        <ele>195.0</ele>
        <time>2014-02-09T08:35:57Z</time>
      </trkpt>
      <trkpt lat="43.541950" lon="1.566213">
        <ele>195.6</ele>
        <time>2014-02-09T08:36:59Z</time>
      </trkpt>
      <trkpt lat="43.541946" lon="1.566349">
        <ele>195.6</ele>
        <time>2014-02-09T08:37:10Z</time>
      </trkpt>
      <trkpt lat="43.542029" lon="1.566453">
        <ele>195.1</ele>
        <time>2014-02-09T08:37:20Z</time>
      </trkpt>
      <trkpt lat="43.542087" lon="1.566539">
        <ele>194.4</ele>
        <time>2014-02-09T08:37:30Z</time>
      </trkpt>
      <trkpt lat="43.542122" lon="1.566667">
        <ele>194.3</ele>
        <time>2014-02-09T08:37:57Z</time>
      </trkpt>
      <trkpt lat="43.542151" lon="1.566781">
        <ele>193.9</ele>
        <time>2014-02-09T08:38:10Z</time>
      </trkpt>
      <trkpt lat="43.542127" lon="1.566906">
        <ele>193.9</ele>
        <time>2014-02-09T08:38:19Z</time>
      </trkpt>
      <trkpt lat="43.542086" lon="1.567015">
        <ele>193.9</ele>
        <time>2014-02-09T08:38:27Z</time>
      </trkpt>
      <trkpt lat="43.542039" lon="1.567128">
        <ele>193.9</ele>
        <time>2014-02-09T08:38:36Z</time>
      </trkpt>
      <trkpt lat="43.541998" lon="1.567251">
        <ele>194.0</ele>
        <time>2014-02-09T08:38:46Z</time>
      </trkpt>
      <trkpt lat="43.541940" lon="1.567375">
        <ele>193.9</ele>
        <time>2014-02-09T08:38:58Z</time>
      </trkpt>
      <trkpt lat="43.541891" lon="1.567485">
        <ele>193.8</ele>
        <time>2014-02-09T08:39:09Z</time>
      </trkpt>
      <trkpt lat="43.541865" lon="1.567636">
        <ele>193.9</ele>
        <time>2014-02-09T08:39:21Z</time>
      </trkpt>
      <trkpt lat="43.541880" lon="1.567762">
        <ele>193.9</ele>
        <time>2014-02-09T08:39:31Z</time>
      </trkpt>
      <trkpt lat="43.541921" lon="1.567884">
        <ele>192.9</ele>
        <time>2014-02-09T08:39:42Z</time>
      </trkpt>
      <trkpt lat="43.541984" lon="1.568025">
        <ele>191.1</ele>
        <time>2014-02-09T08:39:54Z</time>
      </trkpt>
      <trkpt lat="43.542052" lon="1.568129">
        <ele>189.3</ele>
        <time>2014-02-09T08:40:04Z</time>
      </trkpt>
      <trkpt lat="43.542124" lon="1.568244">
        <ele>187.6</ele>
        <time>2014-02-09T08:40:14Z</time>
      </trkpt>
      <trkpt lat="43.542187" lon="1.568366">
        <ele>186.4</ele>
        <time>2014-02-09T08:40:24Z</time>
      </trkpt>
      <trkpt lat="43.542247" lon="1.568489">
        <ele>186.1</ele>
        <time>2014-02-09T08:40:33Z</time>
      </trkpt>
      <trkpt lat="43.542267" lon="1.568626">
        <ele>185.8</ele>
        <time>2014-02-09T08:40:42Z</time>
      </trkpt>
      <trkpt lat="43.542255" lon="1.568768">
        <ele>184.6</ele>
        <time>2014-02-09T08:40:53Z</time>
      </trkpt>
      <trkpt lat="43.542257" lon="1.568918">
        <ele>182.2</ele>
        <time>2014-02-09T08:41:05Z</time>
      </trkpt>
      <trkpt lat="43.542309" lon="1.569090">
        <ele>180.5</ele>
        <time>2014-02-09T08:41:17Z</time>
      </trkpt>
      <trkpt lat="43.542371" lon="1.569230">
        <ele>179.1</ele>
        <time>2014-02-09T08:41:28Z</time>
      </trkpt>
      <trkpt lat="43.542424" lon="1.569364">
        <ele>177.2</ele>
        <time>2014-02-09T08:41:42Z</time>
      </trkpt>
      <trkpt lat="43.542510" lon="1.569513">
        <ele>175.4</ele>
        <time>2014-02-09T08:41:59Z</time>
      </trkpt>
      <trkpt lat="43.542593" lon="1.569671">
        <ele>173.5</ele>
        <time>2014-02-09T08:42:15Z</time>
      </trkpt>
      <trkpt lat="43.542680" lon="1.569796">
        <ele>171.7</ele>
        <time>2014-02-09T08:42:31Z</time>
      </trkpt>
      <trkpt lat="43.542775" lon="1.569971">
        <ele>170.4</ele>
        <time>2014-02-09T08:42:47Z</time>
      </trkpt>
      <trkpt lat="43.542858" lon="1.570107">
        <ele>169.3</ele>
        <time>2014-02-09T08:42:59Z</time>
      </trkpt>
      <trkpt lat="43.542944" lon="1.570246">
        <ele>167.6</ele>
        <time>2014-02-09T08:43:13Z</time>
      </trkpt>
      <trkpt lat="43.543014" lon="1.570386">
        <ele>165.8</ele>
        <time>2014-02-09T08:43:25Z</time>
      </trkpt>
      <trkpt lat="43.543080" lon="1.570551">
        <ele>163.5</ele>
        <time>2014-02-09T08:43:37Z</time>
      </trkpt>
      <trkpt lat="43.543190" lon="1.570709">
        <ele>162.8</ele>
        <time>2014-02-09T08:43:48Z</time>
      </trkpt>
      <trkpt lat="43.543268" lon="1.570865">
        <ele>161.8</ele>
        <time>2014-02-09T08:44:00Z</time>
      </trkpt>
      <trkpt lat="43.543350" lon="1.570995">
        <ele>160.6</ele>
        <time>2014-02-09T08:44:11Z</time>
      </trkpt>
      <trkpt lat="43.543440" lon="1.571142">
        <ele>159.6</ele>
        <time>2014-02-09T08:44:21Z</time>
      </trkpt>
      <trkpt lat="43.543511" lon="1.571280">
        <ele>158.9</ele>
        <time>2014-02-09T08:44:32Z</time>
      </trkpt>
      <trkpt lat="43.543585" lon="1.571404">
        <ele>158.3</ele>
        <time>2014-02-09T08:44:42Z</time>
      </trkpt>
      <trkpt lat="43.543667" lon="1.571531">
        <ele>157.6</ele>
        <time>2014-02-09T08:44:53Z</time>
      </trkpt>
      <trkpt lat="43.543735" lon="1.571650">
        <ele>156.9</ele>
        <time>2014-02-09T08:45:03Z</time>
      </trkpt>
      <trkpt lat="43.543798" lon="1.571779">
        <ele>156.0</ele>
        <time>2014-02-09T08:45:13Z</time>
      </trkpt>
      <trkpt lat="43.543881" lon="1.571888">
        <ele>155.1</ele>
        <time>2014-02-09T08:45:22Z</time>
        <name>La Palanque</name>
      </trkpt>
      <trkpt lat="43.543952" lon="1.571991">
        <ele>154.5</ele>
        <time>2014-02-09T08:45:32Z</time>
      </trkpt>
      <trkpt lat="43.543979" lon="1.572096">
        <ele>154.2</ele>
        <time>2014-02-09T08:45:45Z</time>
      </trkpt>
      <trkpt lat="43.544056" lon="1.572163">
        <ele>153.2</ele>
        <time>2014-02-09T08:46:01Z</time>
      </trkpt>
      <trkpt lat="43.544170" lon="1.572252">
        <ele>152.6</ele>
        <time>2014-02-09T08:46:13Z</time>
      </trkpt>
      <trkpt lat="43.544240" lon="1.572350">
        <ele>152.7</ele>
        <time>2014-02-09T08:46:24Z</time>
      </trkpt>
      <trkpt lat="43.544348" lon="1.572452">
        <ele>152.4</ele>
        <time>2014-02-09T08:46:34Z</time>
      </trkpt>
      <trkpt lat="43.544460" lon="1.572543">
        <ele>152.0</ele>
        <time>2014-02-09T08:46:43Z</time>
      </trkpt>
      <trkpt lat="43.544540" lon="1.572649">
        <ele>151.9</ele>
        <time>2014-02-09T08:46:52Z</time>
      </trkpt>
      <trkpt lat="43.544626" lon="1.572749">
        <ele>151.9</ele>
        <time>2014-02-09T08:47:03Z</time>
      </trkpt>
      <trkpt lat="43.544715" lon="1.572893">
        <ele>151.3</ele>
        <time>2014-02-09T08:47:13Z</time>
      </trkpt>
      <trkpt lat="43.544816" lon="1.572998">
        <ele>150.6</ele>
        <time>2014-02-09T08:47:25Z</time>
      </trkpt>
      <trkpt lat="43.544876" lon="1.573111">
        <ele>150.4</ele>
        <time>2014-02-09T08:47:36Z</time>
      </trkpt>
      <trkpt lat="43.544916" lon="1.573226">
        <ele>151.1</ele>
        <time>2014-02-09T08:47:54Z</time>
      </trkpt>
      <trkpt lat="43.544995" lon="1.573314">
        <ele>151.7</ele>
        <time>2014-02-09T08:48:05Z</time>
      </trkpt>
      <trkpt lat="43.545051" lon="1.573427">
        <ele>151.9</ele>
        <time>2014-02-09T08:48:13Z</time>
      </trkpt>
      <trkpt lat="43.545112" lon="1.573536">
        <ele>151.7</ele>
        <time>2014-02-09T08:48:22Z</time>
      </trkpt>
      <trkpt lat="43.545174" lon="1.573651">
        <ele>151.5</ele>
        <time>2014-02-09T08:48:31Z</time>
      </trkpt>
      <trkpt lat="43.545245" lon="1.573759">
        <ele>151.6</ele>
        <time>2014-02-09T08:48:39Z</time>
      </trkpt>
      <trkpt lat="43.545311" lon="1.573845">
        <ele>151.6</ele>
        <time>2014-02-09T08:48:46Z</time>
      </trkpt>
      <trkpt lat="43.545377" lon="1.573944">
        <ele>151.4</ele>
        <time>2014-02-09T08:48:54Z</time>
      </trkpt>
      <trkpt lat="43.545448" lon="1.574027">
        <ele>151.6</ele>
        <time>2014-02-09T08:49:02Z</time>
      </trkpt>
      <trkpt lat="43.545493" lon="1.574133">
        <ele>151.8</ele>
        <time>2014-02-09T08:49:10Z</time>
      </trkpt>
      <trkpt lat="43.545530" lon="1.574208">
        <ele>151.7</ele>
        <time>2014-02-09T08:51:00Z</time>
        <name>Borde Grande</name>
      </trkpt>
      <trkpt lat="43.545486" lon="1.574324">
        <ele>151.6</ele>
        <time>2014-02-09T08:51:09Z</time>
      </trkpt>
      <trkpt lat="43.545410" lon="1.574393">
        <ele>151.3</ele>
        <time>2014-02-09T08:51:18Z</time>
      </trkpt>
      <trkpt lat="43.545344" lon="1.574485">
        <ele>151.3</ele>
        <time>2014-02-09T08:51:26Z</time>
      </trkpt>
      <trkpt lat="43.545298" lon="1.574592">
        <ele>151.3</ele>
        <time>2014-02-09T08:51:34Z</time>
      </trkpt>
      <trkpt lat="43.545242" lon="1.574714">
        <ele>151.5</ele>
        <time>2014-02-09T08:51:42Z</time>
      </trkpt>
      <trkpt lat="43.545184" lon="1.574830">
        <ele>151.6</ele>
        <time>2014-02-09T08:51:50Z</time>
      </trkpt>
      <trkpt lat="43.545135" lon="1.574946">
        <ele>151.4</ele>
        <time>2014-02-09T08:51:57Z</time>
      </trkpt>
      <trkpt lat="43.545086" lon="1.575074">
        <ele>151.3</ele>
        <time>2014-02-09T08:52:06Z</time>
      </trkpt>
      <trkpt lat="43.545033" lon="1.575181">
        <ele>151.3</ele>
        <time>2014-02-09T08:52:13Z</time>
      </trkpt>
      <trkpt lat="43.544972" lon="1.575302">
        <ele>151.6</ele>
        <time>2014-02-09T08:52:21Z</time>
      </trkpt>
      <trkpt lat="43.544924" lon="1.575409">
        <ele>151.9</ele>
        <time>2014-02-09T08:52:28Z</time>
      </trkpt>
      <trkpt lat="43.544857" lon="1.575532">
        <ele>152.1</ele>
        <time>2014-02-09T08:52:35Z</time>
      </trkpt>
      <trkpt lat="43.544807" lon="1.575640">
        <ele>152.2</ele>
        <time>2014-02-09T08:52:43Z</time>
      </trkpt>
      <trkpt lat="43.544742" lon="1.575742">
        <ele>152.4</ele>
        <time>2014-02-09T08:52:50Z</time>
      </trkpt>
      <trkpt lat="43.544663" lon="1.575831">
        <ele>152.4</ele>
        <time>2014-02-09T08:52:57Z</time>
      </trkpt>
      <trkpt lat="43.544595" lon="1.575932">
        <ele>152.6</ele>
        <time>2014-02-09T08:53:05Z</time>
      </trkpt>
      <trkpt lat="43.544518" lon="1.576038">
        <ele>152.6</ele>
        <time>2014-02-09T08:53:13Z</time>
      </trkpt>
      <trkpt lat="43.544443" lon="1.576115">
        <ele>152.6</ele>
        <time>2014-02-09T08:53:20Z</time>
      </trkpt>
      <trkpt lat="43.544375" lon="1.576222">
        <ele>152.8</ele>
        <time>2014-02-09T08:53:27Z</time>
      </trkpt>
      <trkpt lat="43.544301" lon="1.576329">
        <ele>153.1</ele>
        <time>2014-02-09T08:53:38Z</time>
      </trkpt>
      <trkpt lat="43.544230" lon="1.576418">
        <ele>152.9</ele>
        <time>2014-02-09T08:53:45Z</time>
      </trkpt>
      <trkpt lat="43.544160" lon="1.576517">
        <ele>153.1</ele>
        <time>2014-02-09T08:53:52Z</time>
      </trkpt>
      <trkpt lat="43.544096" lon="1.576605">
        <ele>153.2</ele>
        <time>2014-02-09T08:53:59Z</time>
      </trkpt>
      <trkpt lat="43.544027" lon="1.576691">
        <ele>153.3</ele>
        <time>2014-02-09T08:54:06Z</time>
      </trkpt>
      <trkpt lat="43.543964" lon="1.576789">
        <ele>153.6</ele>
        <time>2014-02-09T08:54:13Z</time>
      </trkpt>
      <trkpt lat="43.543896" lon="1.576898">
        <ele>153.8</ele>
        <time>2014-02-09T08:54:20Z</time>
      </trkpt>
      <trkpt lat="43.543839" lon="1.577004">
        <ele>154.0</ele>
        <time>2014-02-09T08:54:28Z</time>
      </trkpt>
      <trkpt lat="43.543778" lon="1.577108">
        <ele>154.2</ele>
        <time>2014-02-09T08:55:14Z</time>
      </trkpt>
      <trkpt lat="43.543737" lon="1.577225">
        <ele>153.9</ele>
        <time>2014-02-09T08:55:22Z</time>
      </trkpt>
      <trkpt lat="43.543691" lon="1.577340">
        <ele>154.1</ele>
        <time>2014-02-09T08:55:29Z</time>
      </trkpt>
      <trkpt lat="43.543641" lon="1.577450">
        <ele>154.3</ele>
        <time>2014-02-09T08:55:35Z</time>
      </trkpt>
      <trkpt lat="43.543590" lon="1.577557">
        <ele>154.4</ele>
        <time>2014-02-09T08:55:42Z</time>
      </trkpt>
      <trkpt lat="43.543546" lon="1.577689">
        <ele>154.5</ele>
        <time>2014-02-09T08:55:50Z</time>
      </trkpt>
      <trkpt lat="43.543515" lon="1.577821">
        <ele>154.9</ele>
        <time>2014-02-09T08:55:57Z</time>
      </trkpt>
      <trkpt lat="43.543473" lon="1.577950">
        <ele>155.0</ele>
        <time>2014-02-09T08:56:04Z</time>
      </trkpt>
      <trkpt lat="43.543430" lon="1.578079">
        <ele>155.1</ele>
        <time>2014-02-09T08:56:11Z</time>
      </trkpt>
      <trkpt lat="43.543390" lon="1.578187">
        <ele>154.8</ele>
        <time>2014-02-09T08:56:17Z</time>
      </trkpt>
      <trkpt lat="43.543340" lon="1.578306">
        <ele>154.6</ele>
        <time>2014-02-09T08:56:24Z</time>
      </trkpt>
      <trkpt lat="43.543293" lon="1.578432">
        <ele>154.3</ele>
        <time>2014-02-09T08:56:31Z</time>
      </trkpt>
      <trkpt lat="43.543252" lon="1.578545">
        <ele>154.1</ele>
        <time>2014-02-09T08:56:38Z</time>
      </trkpt>
      <trkpt lat="43.543202" lon="1.578667">
        <ele>153.9</ele>
        <time>2014-02-09T08:56:45Z</time>
      </trkpt>
      <trkpt lat="43.543165" lon="1.578798">
        <ele>153.8</ele>
        <time>2014-02-09T08:56:52Z</time>
      </trkpt>
      <trkpt lat="43.543127" lon="1.578940">
        <ele>153.7</ele>
        <time>2014-02-09T08:56:59Z</time>
      </trkpt>
      <trkpt lat="43.543087" lon="1.579061">
        <ele>153.4</ele>
        <time>2014-02-09T08:57:05Z</time>
      </trkpt>
      <trkpt lat="43.543047" lon="1.579187">
        <ele>153.2</ele>
        <time>2014-02-09T08:57:12Z</time>
      </trkpt>
      <trkpt lat="43.543007" lon="1.579299">
        <ele>153.1</ele>
        <time>2014-02-09T08:57:18Z</time>
      </trkpt>
      <trkpt lat="43.542976" lon="1.579437">
        <ele>153.1</ele>
        <time>2014-02-09T08:57:26Z</time>
      </trkpt>
      <trkpt lat="43.542971" lon="1.579558">
        <ele>153.1</ele>
        <time>2014-02-09T08:57:32Z</time>
      </trkpt>
      <trkpt lat="43.542991" lon="1.579681">
        <ele>153.1</ele>
        <time>2014-02-09T08:57:39Z</time>
      </trkpt>
      <trkpt lat="43.543033" lon="1.579812">
        <ele>153.3</ele>
        <time>2014-02-09T08:57:47Z</time>
      </trkpt>
      <trkpt lat="43.543034" lon="1.579942">
        <ele>153.2</ele>
        <time>2014-02-09T08:57:53Z</time>
      </trkpt>
      <trkpt lat="43.543000" lon="1.580059">
        <ele>153.3</ele>
        <time>2014-02-09T08:57:59Z</time>
      </trkpt>
      <trkpt lat="43.542940" lon="1.580153">
        <ele>153.3</ele>
        <time>2014-02-09T08:58:05Z</time>
      </trkpt>
      <trkpt lat="43.542875" lon="1.580254">
        <ele>153.2</ele>
        <time>2014-02-09T08:58:12Z</time>
      </trkpt>
      <trkpt lat="43.542813" lon="1.580350">
        <ele>153.2</ele>
        <time>2014-02-09T08:58:19Z</time>
      </trkpt>
      <trkpt lat="43.542755" lon="1.580453">
        <ele>153.2</ele>
        <time>2014-02-09T08:58:25Z</time>
      </trkpt>
      <trkpt lat="43.542693" lon="1.580546">
        <ele>153.2</ele>
        <time>2014-02-09T08:58:33Z</time>
      </trkpt>
      <trkpt lat="43.542628" lon="1.580638">
        <ele>153.2</ele>
        <time>2014-02-09T08:58:39Z</time>
      </trkpt>
      <trkpt lat="43.542551" lon="1.580721">
        <ele>153.5</ele>
        <time>2014-02-09T08:58:46Z</time>
      </trkpt>
      <trkpt lat="43.542476" lon="1.580794">
        <ele>153.6</ele>
        <time>2014-02-09T08:58:53Z</time>
      </trkpt>
      <trkpt lat="43.542394" lon="1.580879">
        <ele>153.8</ele>
        <time>2014-02-09T08:59:00Z</time>
      </trkpt>
      <trkpt lat="43.542318" lon="1.580961">
        <ele>154.1</ele>
        <time>2014-02-09T08:59:06Z</time>
      </trkpt>
      <trkpt lat="43.542250" lon="1.581029">
        <ele>154.3</ele>
        <time>2014-02-09T08:59:12Z</time>
      </trkpt>
      <trkpt lat="43.542169" lon="1.581091">
        <ele>154.3</ele>
        <time>2014-02-09T08:59:20Z</time>
      </trkpt>
      <trkpt lat="43.542089" lon="1.581175">
        <ele>154.2</ele>
        <time>2014-02-09T08:59:28Z</time>
      </trkpt>
      <trkpt lat="43.542009" lon="1.581296">
        <ele>154.1</ele>
        <time>2014-02-09T08:59:38Z</time>
      </trkpt>
      <trkpt lat="43.541927" lon="1.581394">
        <ele>153.9</ele>
        <time>2014-02-09T08:59:45Z</time>
      </trkpt>
      <trkpt lat="43.541835" lon="1.581485">
        <ele>153.7</ele>
        <time>2014-02-09T08:59:53Z</time>
      </trkpt>
      <trkpt lat="43.541743" lon="1.581575">
        <ele>153.5</ele>
        <time>2014-02-09T09:00:02Z</time>
      </trkpt>
      <trkpt lat="43.541648" lon="1.581640">
        <ele>153.3</ele>
        <time>2014-02-09T09:00:11Z</time>
      </trkpt>
      <trkpt lat="43.541549" lon="1.581694">
        <ele>153.1</ele>
        <time>2014-02-09T09:00:19Z</time>
      </trkpt>
      <trkpt lat="43.541465" lon="1.581776">
        <ele>153.1</ele>
        <time>2014-02-09T09:00:53Z</time>
      </trkpt>
      <trkpt lat="43.541381" lon="1.581857">
        <ele>152.9</ele>
        <time>2014-02-09T09:01:04Z</time>
      </trkpt>
      <trkpt lat="43.541311" lon="1.581963">
        <ele>152.8</ele>
        <time>2014-02-09T09:01:13Z</time>
      </trkpt>
      <trkpt lat="43.541235" lon="1.582059">
        <ele>152.9</ele>
        <time>2014-02-09T09:01:23Z</time>
      </trkpt>
      <trkpt lat="43.541170" lon="1.582198">
        <ele>152.7</ele>
        <time>2014-02-09T09:01:32Z</time>
      </trkpt>
      <trkpt lat="43.541097" lon="1.582304">
        <ele>152.5</ele>
        <time>2014-02-09T09:01:40Z</time>
      </trkpt>
      <trkpt lat="43.541020" lon="1.582396">
        <ele>152.7</ele>
        <time>2014-02-09T09:01:48Z</time>
      </trkpt>
      <trkpt lat="43.540944" lon="1.582491">
        <ele>152.7</ele>
        <time>2014-02-09T09:01:56Z</time>
      </trkpt>
      <trkpt lat="43.540858" lon="1.582576">
        <ele>152.9</ele>
        <time>2014-02-09T09:02:04Z</time>
      </trkpt>
      <trkpt lat="43.540785" lon="1.582671">
        <ele>153.1</ele>
        <time>2014-02-09T09:02:12Z</time>
      </trkpt>
      <trkpt lat="43.540723" lon="1.582774">
        <ele>153.0</ele>
        <time>2014-02-09T09:02:19Z</time>
      </trkpt>
      <trkpt lat="43.540689" lon="1.582881">
        <ele>152.8</ele>
        <time>2014-02-09T09:02:26Z</time>
      </trkpt>
      <trkpt lat="43.540644" lon="1.582987">
        <ele>153.1</ele>
        <time>2014-02-09T09:02:33Z</time>
      </trkpt>
      <trkpt lat="43.540596" lon="1.583107">
        <ele>153.4</ele>
        <time>2014-02-09T09:02:41Z</time>
      </trkpt>
      <trkpt lat="43.540547" lon="1.583232">
        <ele>153.7</ele>
        <time>2014-02-09T09:02:52Z</time>
      </trkpt>
      <trkpt lat="43.540493" lon="1.583352">
        <ele>153.4</ele>
        <time>2014-02-09T09:03:01Z</time>
      </trkpt>
      <trkpt lat="43.540435" lon="1.583463">
        <ele>153.6</ele>
        <time>2014-02-09T09:03:09Z</time>
      </trkpt>
      <trkpt lat="43.540354" lon="1.583554">
        <ele>153.6</ele>
        <time>2014-02-09T09:03:19Z</time>
      </trkpt>
      <trkpt lat="43.540282" lon="1.583653">
        <ele>153.2</ele>
        <time>2014-02-09T09:03:27Z</time>
      </trkpt>
      <trkpt lat="43.540204" lon="1.583742">
        <ele>153.3</ele>
        <time>2014-02-09T09:03:36Z</time>
      </trkpt>
      <trkpt lat="43.540118" lon="1.583787">
        <ele>153.5</ele>
        <time>2014-02-09T09:03:51Z</time>
      </trkpt>
      <trkpt lat="43.540050" lon="1.583887">
        <ele>153.6</ele>
        <time>2014-02-09T09:03:59Z</time>
      </trkpt>
      <trkpt lat="43.539951" lon="1.583996">
        <ele>153.5</ele>
        <time>2014-02-09T09:04:11Z</time>
      </trkpt>
      <trkpt lat="43.539877" lon="1.584120">
        <ele>153.3</ele>
        <time>2014-02-09T09:04:22Z</time>
      </trkpt>
      <trkpt lat="43.539808" lon="1.584242">
        <ele>153.2</ele>
        <time>2014-02-09T09:04:35Z</time>
      </trkpt>
      <trkpt lat="43.539740" lon="1.584345">
        <ele>153.2</ele>
        <time>2014-02-09T09:05:15Z</time>
      </trkpt>
      <trkpt lat="43.539673" lon="1.584441">
        <ele>153.1</ele>
        <time>2014-02-09T09:05:24Z</time>
      </trkpt>
      <trkpt lat="43.539602" lon="1.584545">
        <ele>153.4</ele>
        <time>2014-02-09T09:05:32Z</time>
      </trkpt>
      <trkpt lat="43.539539" lon="1.584653">
        <ele>153.2</ele>
        <time>2014-02-09T09:05:41Z</time>
      </trkpt>
      <trkpt lat="43.539468" lon="1.584768">
        <ele>153.4</ele>
        <time>2014-02-09T09:05:50Z</time>
      </trkpt>
      <trkpt lat="43.539400" lon="1.584863">
        <ele>153.3</ele>
        <time>2014-02-09T09:05:59Z</time>
      </trkpt>
      <trkpt lat="43.539327" lon="1.584965">
        <ele>153.5</ele>
        <time>2014-02-09T09:06:09Z</time>
      </trkpt>
      <trkpt lat="43.539262" lon="1.585074">
        <ele>153.5</ele>
        <time>2014-02-09T09:06:18Z</time>
      </trkpt>
      <trkpt lat="43.539189" lon="1.585186">
        <ele>153.6</ele>
        <time>2014-02-09T09:06:28Z</time>
      </trkpt>
      <trkpt lat="43.539122" lon="1.585300">
        <ele>153.7</ele>
        <time>2014-02-09T09:06:37Z</time>
      </trkpt>
      <trkpt lat="43.539056" lon="1.585392">
        <ele>153.8</ele>
        <time>2014-02-09T09:06:47Z</time>
      </trkpt>
      <trkpt lat="43.538950" lon="1.585471">
        <ele>153.6</ele>
        <time>2014-02-09T09:07:44Z</time>
      </trkpt>
      <trkpt lat="43.538876" lon="1.585571">
        <ele>153.7</ele>
        <time>2014-02-09T09:07:55Z</time>
      </trkpt>
      <trkpt lat="43.538806" lon="1.585661">
        <ele>153.6</ele>
        <time>2014-02-09T09:08:04Z</time>
      </trkpt>
      <trkpt lat="43.538728" lon="1.585785">
        <ele>153.6</ele>
        <time>2014-02-09T09:08:14Z</time>
      </trkpt>
      <trkpt lat="43.538647" lon="1.585893">
        <ele>153.6</ele>
        <time>2014-02-09T09:08:24Z</time>
      </trkpt>
      <trkpt lat="43.538578" lon="1.586008">
        <ele>153.4</ele>
        <time>2014-02-09T09:08:33Z</time>
      </trkpt>
      <trkpt lat="43.538510" lon="1.586122">
        <ele>153.4</ele>
        <time>2014-02-09T09:08:42Z</time>
      </trkpt>
      <trkpt lat="43.538449" lon="1.586233">
        <ele>153.6</ele>
        <time>2014-02-09T09:08:51Z</time>
      </trkpt>
      <trkpt lat="43.538381" lon="1.586334">
        <ele>153.6</ele>
        <time>2014-02-09T09:08:59Z</time>
      </trkpt>
      <trkpt lat="43.538329" lon="1.586453">
        <ele>153.6</ele>
        <time>2014-02-09T09:09:07Z</time>
      </trkpt>
      <trkpt lat="43.538274" lon="1.586564">
        <ele>153.5</ele>
        <time>2014-02-09T09:09:16Z</time>
      </trkpt>
      <trkpt lat="43.538206" lon="1.586668">
        <ele>153.3</ele>
        <time>2014-02-09T09:09:24Z</time>
      </trkpt>
      <trkpt lat="43.538156" lon="1.586775">
        <ele>153.4</ele>
        <time>2014-02-09T09:09:31Z</time>
      </trkpt>
      <trkpt lat="43.538093" lon="1.586891">
        <ele>153.7</ele>
        <time>2014-02-09T09:09:39Z</time>
      </trkpt>
      <trkpt lat="43.538041" lon="1.587001">
        <ele>153.8</ele>
        <time>2014-02-09T09:09:47Z</time>
      </trkpt>
      <trkpt lat="43.538008" lon="1.587118">
        <ele>153.9</ele>
        <time>2014-02-09T09:09:54Z</time>
      </trkpt>
      <trkpt lat="43.537955" lon="1.587235">
        <ele>154.2</ele>
        <time>2014-02-09T09:10:02Z</time>
      </trkpt>
      <trkpt lat="43.537892" lon="1.587343">
        <ele>154.4</ele>
        <time>2014-02-09T09:10:10Z</time>
      </trkpt>
      <trkpt lat="43.537840" lon="1.587452">
        <ele>154.5</ele>
        <time>2014-02-09T09:10:18Z</time>
      </trkpt>
      <trkpt lat="43.537773" lon="1.587564">
        <ele>154.1</ele>
        <time>2014-02-09T09:10:26Z</time>
      </trkpt>
      <trkpt lat="43.537710" lon="1.587666">
        <ele>153.9</ele>
        <time>2014-02-09T09:10:33Z</time>
      </trkpt>
      <trkpt lat="43.537645" lon="1.587771">
        <ele>153.9</ele>
        <time>2014-02-09T09:10:40Z</time>
      </trkpt>
      <trkpt lat="43.537579" lon="1.587867">
        <ele>153.9</ele>
        <time>2014-02-09T09:10:47Z</time>
      </trkpt>
      <trkpt lat="43.537512" lon="1.587967">
        <ele>153.8</ele>
        <time>2014-02-09T09:10:55Z</time>
      </trkpt>
      <trkpt lat="43.537454" lon="1.588060">
        <ele>153.9</ele>
        <time>2014-02-09T09:11:03Z</time>
      </trkpt>
      <trkpt lat="43.537382" lon="1.588146">
        <ele>153.9</ele>
        <time>2014-02-09T09:11:10Z</time>
      </trkpt>
      <trkpt lat="43.537310" lon="1.588234">
        <ele>153.9</ele>
        <time>2014-02-09T09:11:18Z</time>
      </trkpt>
      <trkpt lat="43.537243" lon="1.588324">
        <ele>153.9</ele>
        <time>2014-02-09T09:11:25Z</time>
      </trkpt>
      <trkpt lat="43.537171" lon="1.588428">
        <ele>153.8</ele>
        <time>2014-02-09T09:11:33Z</time>
      </trkpt>
      <trkpt lat="43.537102" lon="1.588527">
        <ele>153.6</ele>
        <time>2014-02-09T09:11:40Z</time>
      </trkpt>
      <trkpt lat="43.537034" lon="1.588628">
        <ele>153.9</ele>
        <time>2014-02-09T09:11:48Z</time>
      </trkpt>
      <trkpt lat="43.536968" lon="1.588732">
        <ele>154.0</ele>
        <time>2014-02-09T09:11:55Z</time>
      </trkpt>
      <trkpt lat="43.536892" lon="1.588825">
        <ele>154.0</ele>
        <time>2014-02-09T09:12:03Z</time>
      </trkpt>
      <trkpt lat="43.536826" lon="1.588937">
        <ele>154.2</ele>
        <time>2014-02-09T09:12:10Z</time>
      </trkpt>
      <trkpt lat="43.536757" lon="1.589028">
        <ele>154.3</ele>
        <time>2014-02-09T09:12:17Z</time>
      </trkpt>
      <trkpt lat="43.536690" lon="1.589124">
        <ele>154.3</ele>
        <time>2014-02-09T09:12:24Z</time>
      </trkpt>
      <trkpt lat="43.536630" lon="1.589228">
        <ele>154.2</ele>
        <time>2014-02-09T09:12:32Z</time>
      </trkpt>
      <trkpt lat="43.536570" lon="1.589317">
        <ele>153.9</ele>
        <time>2014-02-09T09:12:39Z</time>
      </trkpt>
      <trkpt lat="43.536486" lon="1.589411">
        <ele>153.7</ele>
        <time>2014-02-09T09:12:47Z</time>
      </trkpt>
      <trkpt lat="43.536419" lon="1.589509">
        <ele>153.6</ele>
        <time>2014-02-09T09:12:54Z</time>
      </trkpt>
      <trkpt lat="43.536342" lon="1.589589">
        <ele>153.7</ele>
        <time>2014-02-09T09:13:02Z</time>
      </trkpt>
      <trkpt lat="43.536256" lon="1.589658">
        <ele>153.7</ele>
        <time>2014-02-09T09:13:10Z</time>
      </trkpt>
      <trkpt lat="43.536175" lon="1.589745">
        <ele>153.9</ele>
        <time>2014-02-09T09:13:17Z</time>
      </trkpt>
      <trkpt lat="43.536098" lon="1.589820">
        <ele>153.9</ele>
        <time>2014-02-09T09:13:25Z</time>
      </trkpt>
      <trkpt lat="43.536000" lon="1.589872">
        <ele>153.8</ele>
        <time>2014-02-09T09:13:34Z</time>
      </trkpt>
      <trkpt lat="43.535915" lon="1.589929">
        <ele>153.9</ele>
        <time>2014-02-09T09:13:43Z</time>
      </trkpt>
      <trkpt lat="43.535832" lon="1.590018">
        <ele>154.1</ele>
        <time>2014-02-09T09:13:51Z</time>
      </trkpt>
      <trkpt lat="43.535753" lon="1.590089">
        <ele>154.2</ele>
        <time>2014-02-09T09:14:03Z</time>
      </trkpt>
      <trkpt lat="43.535678" lon="1.590166">
        <ele>154.3</ele>
        <time>2014-02-09T09:14:11Z</time>
      </trkpt>
      <trkpt lat="43.535612" lon="1.590259">
        <ele>154.2</ele>
        <time>2014-02-09T09:14:19Z</time>
      </trkpt>
      <trkpt lat="43.535546" lon="1.590340">
        <ele>154.2</ele>
        <time>2014-02-09T09:14:26Z</time>
      </trkpt>
      <trkpt lat="43.535468" lon="1.590436">
        <ele>154.2</ele>
        <time>2014-02-09T09:14:34Z</time>
      </trkpt>
      <trkpt lat="43.535406" lon="1.590528">
        <ele>154.3</ele>
        <time>2014-02-09T09:14:41Z</time>
      </trkpt>
      <trkpt lat="43.535326" lon="1.590604">
        <ele>154.3</ele>
        <time>2014-02-09T09:14:49Z</time>
      </trkpt>
      <trkpt lat="43.535263" lon="1.590693">
        <ele>154.2</ele>
        <time>2014-02-09T09:14:58Z</time>
      </trkpt>
      <trkpt lat="43.535202" lon="1.590797">
        <ele>154.2</ele>
        <time>2014-02-09T09:15:05Z</time>
      </trkpt>
      <trkpt lat="43.535139" lon="1.590871">
        <ele>154.4</ele>
        <time>2014-02-09T09:15:12Z</time>
      </trkpt>
      <trkpt lat="43.535068" lon="1.590967">
        <ele>154.4</ele>
        <time>2014-02-09T09:15:20Z</time>
      </trkpt>
      <trkpt lat="43.534996" lon="1.591059">
        <ele>154.5</ele>
        <time>2014-02-09T09:15:28Z</time>
      </trkpt>
      <trkpt lat="43.534923" lon="1.591184">
        <ele>154.8</ele>
        <time>2014-02-09T09:15:36Z</time>
      </trkpt>
      <trkpt lat="43.534858" lon="1.591294">
        <ele>155.0</ele>
        <time>2014-02-09T09:15:44Z</time>
      </trkpt>
      <trkpt lat="43.534799" lon="1.591395">
        <ele>154.8</ele>
        <time>2014-02-09T09:15:52Z</time>
      </trkpt>
      <trkpt lat="43.534740" lon="1.591504">
        <ele>154.6</ele>
        <time>2014-02-09T09:16:00Z</time>
      </trkpt>
      <trkpt lat="43.534688" lon="1.591621">
        <ele>154.7</ele>
        <time>2014-02-09T09:16:08Z</time>
      </trkpt>
      <trkpt lat="43.534634" lon="1.591732">
        <ele>154.6</ele>
        <time>2014-02-09T09:16:15Z</time>
      </trkpt>
      <trkpt lat="43.534576" lon="1.591842">
        <ele>154.7</ele>
        <time>2014-02-09T09:16:23Z</time>
      </trkpt>
      <trkpt lat="43.534509" lon="1.591961">
        <ele>154.6</ele>
        <time>2014-02-09T09:16:31Z</time>
      </trkpt>
      <trkpt lat="43.534455" lon="1.592050">
        <ele>154.6</ele>
        <time>2014-02-09T09:16:38Z</time>
      </trkpt>
      <trkpt lat="43.534393" lon="1.592166">
        <ele>154.8</ele>
        <time>2014-02-09T09:16:46Z</time>
      </trkpt>
      <trkpt lat="43.534337" lon="1.592275">
        <ele>154.9</ele>
        <time>2014-02-09T09:16:53Z</time>
      </trkpt>
      <trkpt lat="43.534279" lon="1.592373">
        <ele>154.5</ele>
        <time>2014-02-09T09:17:00Z</time>
      </trkpt>
      <trkpt lat="43.534221" lon="1.592484">
        <ele>154.7</ele>
        <time>2014-02-09T09:17:08Z</time>
      </trkpt>
      <trkpt lat="43.534162" lon="1.592600">
        <ele>154.9</ele>
        <time>2014-02-09T09:17:16Z</time>
      </trkpt>
      <trkpt lat="43.534102" lon="1.592722">
        <ele>154.8</ele>
        <time>2014-02-09T09:17:25Z</time>
      </trkpt>
      <trkpt lat="43.534047" lon="1.592834">
        <ele>154.8</ele>
        <time>2014-02-09T09:17:33Z</time>
      </trkpt>
      <trkpt lat="43.533992" lon="1.592976">
        <ele>154.8</ele>
        <time>2014-02-09T09:17:41Z</time>
      </trkpt>
      <trkpt lat="43.533943" lon="1.593091">
        <ele>154.7</ele>
        <time>2014-02-09T09:17:49Z</time>
      </trkpt>
      <trkpt lat="43.533890" lon="1.593210">
        <ele>154.8</ele>
        <time>2014-02-09T09:17:57Z</time>
      </trkpt>
      <trkpt lat="43.533830" lon="1.593318">
        <ele>155.0</ele>
        <time>2014-02-09T09:18:05Z</time>
      </trkpt>
      <trkpt lat="43.533767" lon="1.593433">
        <ele>155.0</ele>
        <time>2014-02-09T09:18:13Z</time>
      </trkpt>
      <trkpt lat="43.533705" lon="1.593516">
        <ele>155.1</ele>
        <time>2014-02-09T09:18:21Z</time>
      </trkpt>
      <trkpt lat="43.533637" lon="1.593626">
        <ele>155.0</ele>
        <time>2014-02-09T09:18:29Z</time>
      </trkpt>
      <trkpt lat="43.533569" lon="1.593725">
        <ele>155.0</ele>
        <time>2014-02-09T09:18:37Z</time>
      </trkpt>
      <trkpt lat="43.533507" lon="1.593835">
        <ele>155.0</ele>
        <time>2014-02-09T09:18:45Z</time>
      </trkpt>
      <trkpt lat="43.533450" lon="1.593941">
        <ele>155.1</ele>
        <time>2014-02-09T09:18:52Z</time>
      </trkpt>
      <trkpt lat="43.533388" lon="1.594045">
        <ele>154.9</ele>
        <time>2014-02-09T09:18:59Z</time>
      </trkpt>
      <trkpt lat="43.533325" lon="1.594160">
        <ele>154.8</ele>
        <time>2014-02-09T09:19:07Z</time>
      </trkpt>
      <trkpt lat="43.533260" lon="1.594262">
        <ele>155.0</ele>
        <time>2014-02-09T09:19:15Z</time>
      </trkpt>
      <trkpt lat="43.533194" lon="1.594380">
        <ele>155.2</ele>
        <time>2014-02-09T09:19:23Z</time>
      </trkpt>
      <trkpt lat="43.533130" lon="1.594499">
        <ele>155.4</ele>
        <time>2014-02-09T09:19:31Z</time>
      </trkpt>
      <trkpt lat="43.533073" lon="1.594600">
        <ele>155.5</ele>
        <time>2014-02-09T09:19:39Z</time>
      </trkpt>
      <trkpt lat="43.533019" lon="1.594698">
        <ele>155.6</ele>
        <time>2014-02-09T09:19:47Z</time>
      </trkpt>
      <trkpt lat="43.532937" lon="1.594797">
        <ele>156.1</ele>
        <time>2014-02-09T09:19:57Z</time>
      </trkpt>
      <trkpt lat="43.532829" lon="1.594795">
        <ele>156.3</ele>
        <time>2014-02-09T09:20:08Z</time>
      </trkpt>
      <trkpt lat="43.532720" lon="1.594770">
        <ele>156.1</ele>
        <time>2014-02-09T09:20:18Z</time>
      </trkpt>
      <trkpt lat="43.532698" lon="1.594739">
        <ele>156.1</ele>
        <time>2014-02-09T09:20:33Z</time>
      </trkpt>
      <trkpt lat="43.532601" lon="1.594689">
        <ele>156.1</ele>
        <time>2014-02-09T09:20:42Z</time>
      </trkpt>
      <trkpt lat="43.532504" lon="1.594628">
        <ele>156.1</ele>
        <time>2014-02-09T09:20:50Z</time>
      </trkpt>
      <trkpt lat="43.532421" lon="1.594566">
        <ele>155.9</ele>
        <time>2014-02-09T09:20:58Z</time>
      </trkpt>
      <trkpt lat="43.532348" lon="1.594493">
        <ele>155.7</ele>
        <time>2014-02-09T09:21:06Z</time>
      </trkpt>
      <trkpt lat="43.532263" lon="1.594414">
        <ele>155.3</ele>
        <time>2014-02-09T09:21:15Z</time>
      </trkpt>
      <trkpt lat="43.532203" lon="1.594316">
        <ele>155.4</ele>
        <time>2014-02-09T09:21:23Z</time>
      </trkpt>
      <trkpt lat="43.532128" lon="1.594243">
        <ele>155.4</ele>
        <time>2014-02-09T09:21:31Z</time>
      </trkpt>
      <trkpt lat="43.532060" lon="1.594145">
        <ele>155.5</ele>
        <time>2014-02-09T09:21:40Z</time>
      </trkpt>
      <trkpt lat="43.531997" lon="1.594033">
        <ele>155.7</ele>
        <time>2014-02-09T09:21:48Z</time>
      </trkpt>
      <trkpt lat="43.531935" lon="1.593931">
        <ele>155.7</ele>
        <time>2014-02-09T09:21:56Z</time>
      </trkpt>
      <trkpt lat="43.531872" lon="1.593831">
        <ele>155.7</ele>
        <time>2014-02-09T09:22:04Z</time>
      </trkpt>
      <trkpt lat="43.531785" lon="1.593746">
        <ele>155.6</ele>
        <time>2014-02-09T09:22:13Z</time>
      </trkpt>
      <trkpt lat="43.531690" lon="1.593683">
        <ele>155.5</ele>
        <time>2014-02-09T09:22:21Z</time>
      </trkpt>
      <trkpt lat="43.531604" lon="1.593620">
        <ele>155.5</ele>
        <time>2014-02-09T09:22:29Z</time>
      </trkpt>
      <trkpt lat="43.531516" lon="1.593544">
        <ele>155.4</ele>
        <time>2014-02-09T09:22:37Z</time>
      </trkpt>
      <trkpt lat="43.531424" lon="1.593464">
        <ele>155.4</ele>
        <time>2014-02-09T09:22:45Z</time>
      </trkpt>
      <trkpt lat="43.531340" lon="1.593387">
        <ele>155.5</ele>
        <time>2014-02-09T09:22:53Z</time>
      </trkpt>
      <trkpt lat="43.531261" lon="1.593307">
        <ele>155.9</ele>
        <time>2014-02-09T09:23:02Z</time>
      </trkpt>
      <trkpt lat="43.531184" lon="1.593216">
        <ele>155.9</ele>
        <time>2014-02-09T09:23:11Z</time>
      </trkpt>
      <trkpt lat="43.531100" lon="1.593084">
        <ele>156.3</ele>
        <time>2014-02-09T09:23:22Z</time>
      </trkpt>
      <trkpt lat="43.531012" lon="1.592964">
        <ele>156.2</ele>
        <time>2014-02-09T09:23:31Z</time>
      </trkpt>
      <trkpt lat="43.530925" lon="1.592902">
        <ele>156.3</ele>
        <time>2014-02-09T09:23:39Z</time>
      </trkpt>
      <trkpt lat="43.530848" lon="1.592819">
        <ele>156.8</ele>
        <time>2014-02-09T09:23:48Z</time>
      </trkpt>
      <trkpt lat="43.530773" lon="1.592730">
        <ele>157.1</ele>
        <time>2014-02-09T09:23:58Z</time>
      </trkpt>
      <trkpt lat="43.530694" lon="1.592634">
        <ele>157.3</ele>
        <time>2014-02-09T09:24:07Z</time>
      </trkpt>
      <trkpt lat="43.530597" lon="1.592564">
        <ele>157.6</ele>
        <time>2014-02-09T09:24:17Z</time>
      </trkpt>
      <trkpt lat="43.530544" lon="1.592474">
        <ele>158.0</ele>
        <time>2014-02-09T09:24:39Z</time>
        <name>La Pigeoniere</name>
      </trkpt>
      <trkpt lat="43.530592" lon="1.592399">
        <ele>158.1</ele>
        <time>2014-02-09T09:25:06Z</time>
      </trkpt>
      <trkpt lat="43.530691" lon="1.592321">
        <ele>158.2</ele>
        <time>2014-02-09T09:25:17Z</time>
      </trkpt>
      <trkpt lat="43.530757" lon="1.592233">
        <ele>158.4</ele>
        <time>2014-02-09T09:25:31Z</time>
      </trkpt>
      <trkpt lat="43.530846" lon="1.592145">
        <ele>158.7</ele>
        <time>2014-02-09T09:25:40Z</time>
      </trkpt>
      <trkpt lat="43.530924" lon="1.592051">
        <ele>158.9</ele>
        <time>2014-02-09T09:25:48Z</time>
      </trkpt>
      <trkpt lat="43.531001" lon="1.591962">
        <ele>159.1</ele>
        <time>2014-02-09T09:25:56Z</time>
      </trkpt>
      <trkpt lat="43.531048" lon="1.591862">
        <ele>160.9</ele>
        <time>2014-02-09T09:28:29Z</time>
      </trkpt>
      <trkpt lat="43.531160" lon="1.591843">
        <ele>159.8</ele>
        <time>2014-02-09T09:28:39Z</time>
      </trkpt>
      <trkpt lat="43.531241" lon="1.591746">
        <ele>159.4</ele>
        <time>2014-02-09T09:28:48Z</time>
      </trkpt>
      <trkpt lat="43.531312" lon="1.591667">
        <ele>159.0</ele>
        <time>2014-02-09T09:28:56Z</time>
      </trkpt>
      <trkpt lat="43.531385" lon="1.591561">
        <ele>158.7</ele>
        <time>2014-02-09T09:29:04Z</time>
      </trkpt>
      <trkpt lat="43.531461" lon="1.591479">
        <ele>158.6</ele>
        <time>2014-02-09T09:29:12Z</time>
      </trkpt>
      <trkpt lat="43.531541" lon="1.591404">
        <ele>158.5</ele>
        <time>2014-02-09T09:29:21Z</time>
      </trkpt>
      <trkpt lat="43.531616" lon="1.591282">
        <ele>158.2</ele>
        <time>2014-02-09T09:29:31Z</time>
      </trkpt>
      <trkpt lat="43.531693" lon="1.591185">
        <ele>158.1</ele>
        <time>2014-02-09T09:29:43Z</time>
      </trkpt>
      <trkpt lat="43.531768" lon="1.591087">
        <ele>158.1</ele>
        <time>2014-02-09T09:29:53Z</time>
      </trkpt>
      <trkpt lat="43.531849" lon="1.590999">
        <ele>157.8</ele>
        <time>2014-02-09T09:30:03Z</time>
      </trkpt>
      <trkpt lat="43.531928" lon="1.590889">
        <ele>157.8</ele>
        <time>2014-02-09T09:30:16Z</time>
      </trkpt>
      <trkpt lat="43.532000" lon="1.590800">
        <ele>157.9</ele>
        <time>2014-02-09T09:31:09Z</time>
      </trkpt>
      <trkpt lat="43.532081" lon="1.590740">
        <ele>158.5</ele>
        <time>2014-02-09T09:31:36Z</time>
      </trkpt>
      <trkpt lat="43.532167" lon="1.590630">
        <ele>158.2</ele>
        <time>2014-02-09T09:31:47Z</time>
      </trkpt>
      <trkpt lat="43.532260" lon="1.590519">
        <ele>158.3</ele>
        <time>2014-02-09T09:31:58Z</time>
      </trkpt>
      <trkpt lat="43.532345" lon="1.590416">
        <ele>158.0</ele>
        <time>2014-02-09T09:32:07Z</time>
      </trkpt>
      <trkpt lat="43.532429" lon="1.590315">
        <ele>158.2</ele>
        <time>2014-02-09T09:32:17Z</time>
      </trkpt>
      <trkpt lat="43.532502" lon="1.590239">
        <ele>158.1</ele>
        <time>2014-02-09T09:32:42Z</time>
      </trkpt>
      <trkpt lat="43.532576" lon="1.590120">
        <ele>158.1</ele>
        <time>2014-02-09T09:32:51Z</time>
      </trkpt>
      <trkpt lat="43.532640" lon="1.590008">
        <ele>157.9</ele>
        <time>2014-02-09T09:33:00Z</time>
      </trkpt>
      <trkpt lat="43.532720" lon="1.589902">
        <ele>157.6</ele>
        <time>2014-02-09T09:33:10Z</time>
      </trkpt>
      <trkpt lat="43.532788" lon="1.589785">
        <ele>157.6</ele>
        <time>2014-02-09T09:33:19Z</time>
      </trkpt>
      <trkpt lat="43.532861" lon="1.589670">
        <ele>157.7</ele>
        <time>2014-02-09T09:33:28Z</time>
      </trkpt>
      <trkpt lat="43.532930" lon="1.589567">
        <ele>157.8</ele>
        <time>2014-02-09T09:33:37Z</time>
      </trkpt>
      <trkpt lat="43.533005" lon="1.589462">
        <ele>158.0</ele>
        <time>2014-02-09T09:33:46Z</time>
      </trkpt>
      <trkpt lat="43.533083" lon="1.589356">
        <ele>157.9</ele>
        <time>2014-02-09T09:33:56Z</time>
      </trkpt>
      <trkpt lat="43.533164" lon="1.589255">
        <ele>157.7</ele>
        <time>2014-02-09T09:34:05Z</time>
      </trkpt>
      <trkpt lat="43.533242" lon="1.589150">
        <ele>157.6</ele>
        <time>2014-02-09T09:34:14Z</time>
      </trkpt>
      <trkpt lat="43.533320" lon="1.589009">
        <ele>157.9</ele>
        <time>2014-02-09T09:34:23Z</time>
      </trkpt>
      <trkpt lat="43.533375" lon="1.588879">
        <ele>157.6</ele>
        <time>2014-02-09T09:34:32Z</time>
      </trkpt>
      <trkpt lat="43.533450" lon="1.588770">
        <ele>157.8</ele>
        <time>2014-02-09T09:34:42Z</time>
      </trkpt>
      <trkpt lat="43.533522" lon="1.588650">
        <ele>157.9</ele>
        <time>2014-02-09T09:34:51Z</time>
      </trkpt>
      <trkpt lat="43.533588" lon="1.588548">
        <ele>157.9</ele>
        <time>2014-02-09T09:35:00Z</time>
      </trkpt>
      <trkpt lat="43.533656" lon="1.588453">
        <ele>158.2</ele>
        <time>2014-02-09T09:35:10Z</time>
      </trkpt>
      <trkpt lat="43.533731" lon="1.588360">
        <ele>158.4</ele>
        <time>2014-02-09T09:35:20Z</time>
      </trkpt>
      <trkpt lat="43.533810" lon="1.588275">
        <ele>158.5</ele>
        <time>2014-02-09T09:35:29Z</time>
      </trkpt>
      <trkpt lat="43.533871" lon="1.588176">
        <ele>158.7</ele>
        <time>2014-02-09T09:35:39Z</time>
      </trkpt>
      <trkpt lat="43.533934" lon="1.588077">
        <ele>159.2</ele>
        <time>2014-02-09T09:37:25Z</time>
      </trkpt>
      <trkpt lat="43.534004" lon="1.587986">
        <ele>158.9</ele>
        <time>2014-02-09T09:37:41Z</time>
      </trkpt>
      <trkpt lat="43.534067" lon="1.587906">
        <ele>158.6</ele>
        <time>2014-02-09T09:37:54Z</time>
      </trkpt>
      <trkpt lat="43.534132" lon="1.587822">
        <ele>158.5</ele>
        <time>2014-02-09T09:38:03Z</time>
      </trkpt>
      <trkpt lat="43.534212" lon="1.587726">
        <ele>158.6</ele>
        <time>2014-02-09T09:38:12Z</time>
      </trkpt>
      <trkpt lat="43.534277" lon="1.587629">
        <ele>158.2</ele>
        <time>2014-02-09T09:38:22Z</time>
      </trkpt>
      <trkpt lat="43.534363" lon="1.587536">
        <ele>158.0</ele>
        <time>2014-02-09T09:38:31Z</time>
      </trkpt>
      <trkpt lat="43.534435" lon="1.587433">
        <ele>157.8</ele>
        <time>2014-02-09T09:38:40Z</time>
      </trkpt>
      <trkpt lat="43.534503" lon="1.587337">
        <ele>157.6</ele>
        <time>2014-02-09T09:38:51Z</time>
      </trkpt>
      <trkpt lat="43.534584" lon="1.587264">
        <ele>157.5</ele>
        <time>2014-02-09T09:39:00Z</time>
      </trkpt>
      <trkpt lat="43.534659" lon="1.587195">
        <ele>157.6</ele>
        <time>2014-02-09T09:39:09Z</time>
      </trkpt>
      <trkpt lat="43.534736" lon="1.587124">
        <ele>157.6</ele>
        <time>2014-02-09T09:39:18Z</time>
      </trkpt>
      <trkpt lat="43.534811" lon="1.587051">
        <ele>157.3</ele>
        <time>2014-02-09T09:39:27Z</time>
      </trkpt>
      <trkpt lat="43.534897" lon="1.586989">
        <ele>157.4</ele>
        <time>2014-02-09T09:39:36Z</time>
      </trkpt>
      <trkpt lat="43.534979" lon="1.586937">
        <ele>157.5</ele>
        <time>2014-02-09T09:39:44Z</time>
      </trkpt>
      <trkpt lat="43.535063" lon="1.586873">
        <ele>157.4</ele>
        <time>2014-02-09T09:39:52Z</time>
      </trkpt>
      <trkpt lat="43.535143" lon="1.586815">
        <ele>157.4</ele>
        <time>2014-02-09T09:40:00Z</time>
      </trkpt>
      <trkpt lat="43.535228" lon="1.586750">
        <ele>157.2</ele>
        <time>2014-02-09T09:40:09Z</time>
      </trkpt>
      <trkpt lat="43.535310" lon="1.586684">
        <ele>157.0</ele>
        <time>2014-02-09T09:40:17Z</time>
      </trkpt>
      <trkpt lat="43.535390" lon="1.586612">
        <ele>156.8</ele>
        <time>2014-02-09T09:40:25Z</time>
      </trkpt>
      <trkpt lat="43.535464" lon="1.586517">
        <ele>157.0</ele>
        <time>2014-02-09T09:40:33Z</time>
      </trkpt>
      <trkpt lat="43.535537" lon="1.586435">
        <ele>157.2</ele>
        <time>2014-02-09T09:40:41Z</time>
      </trkpt>
      <trkpt lat="43.535607" lon="1.586328">
        <ele>156.9</ele>
        <time>2014-02-09T09:40:49Z</time>
      </trkpt>
      <trkpt lat="43.535676" lon="1.586220">
        <ele>156.7</ele>
        <time>2014-02-09T09:40:57Z</time>
      </trkpt>
      <trkpt lat="43.535748" lon="1.586129">
        <ele>156.8</ele>
        <time>2014-02-09T09:41:05Z</time>
      </trkpt>
      <trkpt lat="43.535826" lon="1.586052">
        <ele>156.6</ele>
        <time>2014-02-09T09:41:13Z</time>
      </trkpt>
      <trkpt lat="43.535909" lon="1.585975">
        <ele>156.6</ele>
        <time>2014-02-09T09:41:21Z</time>
      </trkpt>
      <trkpt lat="43.535984" lon="1.585893">
        <ele>156.7</ele>
        <time>2014-02-09T09:41:29Z</time>
      </trkpt>
      <trkpt lat="43.536057" lon="1.585802">
        <ele>156.6</ele>
        <time>2014-02-09T09:41:49Z</time>
      </trkpt>
      <trkpt lat="43.536145" lon="1.585725">
        <ele>156.4</ele>
        <time>2014-02-09T09:41:59Z</time>
      </trkpt>
      <trkpt lat="43.536242" lon="1.585648">
        <ele>156.4</ele>
        <time>2014-02-09T09:42:08Z</time>
      </trkpt>
      <trkpt lat="43.536319" lon="1.585583">
        <ele>156.2</ele>
        <time>2014-02-09T09:42:16Z</time>
      </trkpt>
      <trkpt lat="43.536418" lon="1.585511">
        <ele>156.2</ele>
        <time>2014-02-09T09:42:25Z</time>
      </trkpt>
      <trkpt lat="43.536506" lon="1.585435">
        <ele>155.9</ele>
        <time>2014-02-09T09:42:34Z</time>
      </trkpt>
      <trkpt lat="43.536574" lon="1.585347">
        <ele>155.8</ele>
        <time>2014-02-09T09:42:42Z</time>
      </trkpt>
      <trkpt lat="43.536658" lon="1.585263">
        <ele>155.8</ele>
        <time>2014-02-09T09:42:52Z</time>
      </trkpt>
      <trkpt lat="43.536732" lon="1.585146">
        <ele>155.5</ele>
        <time>2014-02-09T09:43:01Z</time>
      </trkpt>
      <trkpt lat="43.536796" lon="1.585040">
        <ele>155.3</ele>
        <time>2014-02-09T09:43:10Z</time>
      </trkpt>
      <trkpt lat="43.536863" lon="1.584931">
        <ele>155.3</ele>
        <time>2014-02-09T09:43:19Z</time>
      </trkpt>
      <trkpt lat="43.536925" lon="1.584821">
        <ele>155.3</ele>
        <time>2014-02-09T09:43:28Z</time>
      </trkpt>
      <trkpt lat="43.536967" lon="1.584686">
        <ele>155.3</ele>
        <time>2014-02-09T09:43:39Z</time>
      </trkpt>
      <trkpt lat="43.537005" lon="1.584528">
        <ele>155.3</ele>
        <time>2014-02-09T09:43:52Z</time>
      </trkpt>
      <trkpt lat="43.537062" lon="1.584406">
        <ele>155.2</ele>
        <time>2014-02-09T09:44:02Z</time>
      </trkpt>
      <trkpt lat="43.537106" lon="1.584263">
        <ele>155.2</ele>
        <time>2014-02-09T09:44:12Z</time>
      </trkpt>
      <trkpt lat="43.537143" lon="1.584136">
        <ele>154.9</ele>
        <time>2014-02-09T09:44:22Z</time>
      </trkpt>
      <trkpt lat="43.537182" lon="1.583991">
        <ele>154.6</ele>
        <time>2014-02-09T09:44:32Z</time>
      </trkpt>
      <trkpt lat="43.537221" lon="1.583847">
        <ele>154.6</ele>
        <time>2014-02-09T09:44:41Z</time>
      </trkpt>
      <trkpt lat="43.537270" lon="1.583717">
        <ele>154.8</ele>
        <time>2014-02-09T09:44:50Z</time>
      </trkpt>
      <trkpt lat="43.537335" lon="1.583585">
        <ele>154.7</ele>
        <time>2014-02-09T09:44:59Z</time>
      </trkpt>
      <trkpt lat="43.537394" lon="1.583460">
        <ele>154.7</ele>
        <time>2014-02-09T09:45:07Z</time>
      </trkpt>
      <trkpt lat="43.537452" lon="1.583348">
        <ele>154.7</ele>
        <time>2014-02-09T09:45:16Z</time>
      </trkpt>
      <trkpt lat="43.537512" lon="1.583232">
        <ele>154.7</ele>
        <time>2014-02-09T09:45:25Z</time>
      </trkpt>
      <trkpt lat="43.537562" lon="1.583116">
        <ele>154.6</ele>
        <time>2014-02-09T09:45:33Z</time>
      </trkpt>
      <trkpt lat="43.537631" lon="1.583000">
        <ele>154.4</ele>
        <time>2014-02-09T09:45:42Z</time>
      </trkpt>
      <trkpt lat="43.537692" lon="1.582896">
        <ele>154.6</ele>
        <time>2014-02-09T09:45:51Z</time>
      </trkpt>
      <trkpt lat="43.537757" lon="1.582787">
        <ele>154.5</ele>
        <time>2014-02-09T09:45:59Z</time>
      </trkpt>
      <trkpt lat="43.537820" lon="1.582671">
        <ele>154.4</ele>
        <time>2014-02-09T09:46:07Z</time>
      </trkpt>
      <trkpt lat="43.537890" lon="1.582567">
        <ele>154.5</ele>
        <time>2014-02-09T09:46:15Z</time>
      </trkpt>
      <trkpt lat="43.537962" lon="1.582468">
        <ele>154.6</ele>
        <time>2014-02-09T09:46:26Z</time>
      </trkpt>
      <trkpt lat="43.538031" lon="1.582359">
        <ele>154.4</ele>
        <time>2014-02-09T09:46:38Z</time>
      </trkpt>
      <trkpt lat="43.538102" lon="1.582245">
        <ele>154.4</ele>
        <time>2014-02-09T09:46:48Z</time>
      </trkpt>
      <trkpt lat="43.538186" lon="1.582139">
        <ele>154.5</ele>
        <time>2014-02-09T09:46:57Z</time>
      </trkpt>
      <trkpt lat="43.538261" lon="1.582048">
        <ele>154.4</ele>
        <time>2014-02-09T09:47:05Z</time>
      </trkpt>
      <trkpt lat="43.538329" lon="1.581939">
        <ele>154.4</ele>
        <time>2014-02-09T09:47:14Z</time>
      </trkpt>
      <trkpt lat="43.538402" lon="1.581830">
        <ele>154.5</ele>
        <time>2014-02-09T09:47:23Z</time>
      </trkpt>
      <trkpt lat="43.538484" lon="1.581719">
        <ele>154.8</ele>
        <time>2014-02-09T09:47:34Z</time>
      </trkpt>
      <trkpt lat="43.538550" lon="1.581623">
        <ele>154.9</ele>
        <time>2014-02-09T09:47:43Z</time>
      </trkpt>
      <trkpt lat="43.538619" lon="1.581522">
        <ele>155.0</ele>
        <time>2014-02-09T09:47:53Z</time>
      </trkpt>
      <trkpt lat="43.538683" lon="1.581420">
        <ele>155.3</ele>
        <time>2014-02-09T09:48:01Z</time>
      </trkpt>
      <trkpt lat="43.538760" lon="1.581325">
        <ele>155.8</ele>
        <time>2014-02-09T09:48:09Z</time>
      </trkpt>
      <trkpt lat="43.538754" lon="1.581232">
        <ele>155.9</ele>
        <time>2014-02-09T09:53:23Z</time>
        <name>Buguet</name>
      </trkpt>
      <trkpt lat="43.538658" lon="1.581189">
        <ele>156.5</ele>
        <time>2014-02-09T09:53:32Z</time>
      </trkpt>
      <trkpt lat="43.538590" lon="1.581090">
        <ele>157.1</ele>
        <time>2014-02-09T09:53:44Z</time>
      </trkpt>
      <trkpt lat="43.538510" lon="1.580992">
        <ele>157.6</ele>
        <time>2014-02-09T09:53:55Z</time>
      </trkpt>
      <trkpt lat="43.538430" lon="1.580900">
        <ele>158.3</ele>
        <time>2014-02-09T09:54:05Z</time>
      </trkpt>
      <trkpt lat="43.538362" lon="1.580806">
        <ele>158.9</ele>
        <time>2014-02-09T09:54:15Z</time>
      </trkpt>
      <trkpt lat="43.538281" lon="1.580707">
        <ele>159.7</ele>
        <time>2014-02-09T09:54:26Z</time>
      </trkpt>
      <trkpt lat="43.538221" lon="1.580571">
        <ele>161.0</ele>
        <time>2014-02-09T09:54:37Z</time>
      </trkpt>
      <trkpt lat="43.538147" lon="1.580449">
        <ele>162.3</ele>
        <time>2014-02-09T09:54:50Z</time>
      </trkpt>
      <trkpt lat="43.538064" lon="1.580331">
        <ele>163.4</ele>
        <time>2014-02-09T09:55:00Z</time>
      </trkpt>
      <trkpt lat="43.537975" lon="1.580206">
        <ele>164.2</ele>
        <time>2014-02-09T09:55:13Z</time>
      </trkpt>
      <trkpt lat="43.537879" lon="1.580109">
        <ele>164.0</ele>
        <time>2014-02-09T09:55:24Z</time>
      </trkpt>
      <trkpt lat="43.537772" lon="1.580010">
        <ele>163.4</ele>
        <time>2014-02-09T09:55:37Z</time>
      </trkpt>
      <trkpt lat="43.537638" lon="1.579884">
        <ele>163.0</ele>
        <time>2014-02-09T09:55:51Z</time>
      </trkpt>
      <trkpt lat="43.537498" lon="1.579749">
        <ele>163.0</ele>
        <time>2014-02-09T09:56:05Z</time>
      </trkpt>
      <trkpt lat="43.537395" lon="1.579706">
        <ele>163.6</ele>
        <time>2014-02-09T09:56:16Z</time>
      </trkpt>
      <trkpt lat="43.537294" lon="1.579632">
        <ele>163.9</ele>
        <time>2014-02-09T09:56:27Z</time>
      </trkpt>
      <trkpt lat="43.537185" lon="1.579577">
        <ele>164.3</ele>
        <time>2014-02-09T09:56:37Z</time>
      </trkpt>
      <trkpt lat="43.537078" lon="1.579491">
        <ele>165.2</ele>
        <time>2014-02-09T09:56:49Z</time>
      </trkpt>
      <trkpt lat="43.537013" lon="1.579387">
        <ele>165.6</ele>
        <time>2014-02-09T09:56:59Z</time>
      </trkpt>
      <trkpt lat="43.536955" lon="1.579259">
        <ele>166.9</ele>
        <time>2014-02-09T09:57:11Z</time>
      </trkpt>
      <trkpt lat="43.536928" lon="1.579112">
        <ele>168.4</ele>
        <time>2014-02-09T09:57:26Z</time>
      </trkpt>
      <trkpt lat="43.536908" lon="1.578955">
        <ele>170.4</ele>
        <time>2014-02-09T09:57:39Z</time>
      </trkpt>
      <trkpt lat="43.536879" lon="1.578785">
        <ele>172.5</ele>
        <time>2014-02-09T09:57:56Z</time>
      </trkpt>
      <trkpt lat="43.536883" lon="1.578601">
        <ele>174.1</ele>
        <time>2014-02-09T09:58:12Z</time>
      </trkpt>
      <trkpt lat="43.536924" lon="1.578434">
        <ele>175.8</ele>
        <time>2014-02-09T09:58:27Z</time>
      </trkpt>
      <trkpt lat="43.536932" lon="1.578259">
        <ele>177.5</ele>
        <time>2014-02-09T09:58:42Z</time>
      </trkpt>
      <trkpt lat="43.536950" lon="1.578096">
        <ele>179.6</ele>
        <time>2014-02-09T09:58:56Z</time>
      </trkpt>
      <trkpt lat="43.536954" lon="1.577921">
        <ele>181.6</ele>
        <time>2014-02-09T09:59:12Z</time>
      </trkpt>
      <trkpt lat="43.536914" lon="1.577740">
        <ele>183.4</ele>
        <time>2014-02-09T09:59:27Z</time>
      </trkpt>
      <trkpt lat="43.536911" lon="1.577579">
        <ele>184.9</ele>
        <time>2014-02-09T09:59:39Z</time>
      </trkpt>
      <trkpt lat="43.536907" lon="1.577415">
        <ele>186.1</ele>
        <time>2014-02-09T09:59:50Z</time>
      </trkpt>
      <trkpt lat="43.536931" lon="1.577281">
        <ele>187.1</ele>
        <time>2014-02-09T10:00:00Z</time>
      </trkpt>
      <trkpt lat="43.536926" lon="1.577143">
        <ele>188.5</ele>
        <time>2014-02-09T10:00:11Z</time>
      </trkpt>
      <trkpt lat="43.536929" lon="1.577004">
        <ele>189.8</ele>
        <time>2014-02-09T10:00:24Z</time>
      </trkpt>
      <trkpt lat="43.536921" lon="1.576854">
        <ele>190.6</ele>
        <time>2014-02-09T10:00:36Z</time>
      </trkpt>
      <trkpt lat="43.536901" lon="1.576692">
        <ele>191.5</ele>
        <time>2014-02-09T10:00:48Z</time>
      </trkpt>
      <trkpt lat="43.536894" lon="1.576535">
        <ele>192.4</ele>
        <time>2014-02-09T10:01:00Z</time>
      </trkpt>
      <trkpt lat="43.536892" lon="1.576382">
        <ele>193.2</ele>
        <time>2014-02-09T10:01:12Z</time>
      </trkpt>
      <trkpt lat="43.536896" lon="1.576230">
        <ele>193.8</ele>
        <time>2014-02-09T10:01:23Z</time>
      </trkpt>
      <trkpt lat="43.536894" lon="1.576081">
        <ele>194.0</ele>
        <time>2014-02-09T10:01:33Z</time>
      </trkpt>
      <trkpt lat="43.536914" lon="1.575953">
        <ele>194.8</ele>
        <time>2014-02-09T10:01:47Z</time>
      </trkpt>
      <trkpt lat="43.536930" lon="1.575805">
        <ele>195.0</ele>
        <time>2014-02-09T10:02:01Z</time>
      </trkpt>
      <trkpt lat="43.536942" lon="1.575607">
        <ele>194.6</ele>
        <time>2014-02-09T10:02:12Z</time>
      </trkpt>
      <trkpt lat="43.536924" lon="1.575436">
        <ele>194.7</ele>
        <time>2014-02-09T10:02:23Z</time>
      </trkpt>
      <trkpt lat="43.536940" lon="1.575278">
        <ele>194.9</ele>
        <time>2014-02-09T10:02:34Z</time>
      </trkpt>
      <trkpt lat="43.536956" lon="1.575144">
        <ele>195.0</ele>
        <time>2014-02-09T10:02:44Z</time>
      </trkpt>
      <trkpt lat="43.536959" lon="1.574977">
        <ele>195.5</ele>
        <time>2014-02-09T10:02:54Z</time>
      </trkpt>
      <trkpt lat="43.536962" lon="1.574834">
        <ele>195.7</ele>
        <time>2014-02-09T10:03:03Z</time>
      </trkpt>
      <trkpt lat="43.536965" lon="1.574702">
        <ele>196.1</ele>
        <time>2014-02-09T10:03:12Z</time>
      </trkpt>
      <trkpt lat="43.536967" lon="1.574544">
        <ele>196.5</ele>
        <time>2014-02-09T10:03:21Z</time>
      </trkpt>
      <trkpt lat="43.536986" lon="1.574396">
        <ele>196.9</ele>
        <time>2014-02-09T10:03:31Z</time>
      </trkpt>
      <trkpt lat="43.537021" lon="1.574266">
        <ele>197.2</ele>
        <time>2014-02-09T10:03:40Z</time>
      </trkpt>
      <trkpt lat="43.537048" lon="1.574102">
        <ele>197.8</ele>
        <time>2014-02-09T10:03:51Z</time>
      </trkpt>
      <trkpt lat="43.536952" lon="1.574035">
        <ele>197.4</ele>
        <time>2014-02-09T10:04:11Z</time>
      </trkpt>
      <trkpt lat="43.536864" lon="1.574046">
        <ele>196.6</ele>
        <time>2014-02-09T10:04:21Z</time>
      </trkpt>
      <trkpt lat="43.536770" lon="1.574050">
        <ele>195.6</ele>
        <time>2014-02-09T10:04:30Z</time>
      </trkpt>
      <trkpt lat="43.536691" lon="1.574081">
        <ele>195.0</ele>
        <time>2014-02-09T10:04:38Z</time>
      </trkpt>
      <trkpt lat="43.536629" lon="1.574172">
        <ele>194.4</ele>
        <time>2014-02-09T10:04:48Z</time>
      </trkpt>
      <trkpt lat="43.536576" lon="1.574286">
        <ele>194.4</ele>
        <time>2014-02-09T10:04:57Z</time>
      </trkpt>
      <trkpt lat="43.536523" lon="1.574403">
        <ele>194.4</ele>
        <time>2014-02-09T10:05:07Z</time>
      </trkpt>
      <trkpt lat="43.536443" lon="1.574520">
        <ele>194.6</ele>
        <time>2014-02-09T10:05:19Z</time>
      </trkpt>
      <trkpt lat="43.536383" lon="1.574633">
        <ele>194.9</ele>
        <time>2014-02-09T10:05:29Z</time>
      </trkpt>
      <trkpt lat="43.536289" lon="1.574747">
        <ele>195.5</ele>
        <time>2014-02-09T10:05:40Z</time>
      </trkpt>
      <trkpt lat="43.536178" lon="1.574725">
        <ele>195.9</ele>
        <time>2014-02-09T10:05:54Z</time>
      </trkpt>
      <trkpt lat="43.536089" lon="1.574655">
        <ele>197.2</ele>
        <time>2014-02-09T10:06:08Z</time>
      </trkpt>
      <trkpt lat="43.535987" lon="1.574589">
        <ele>199.1</ele>
        <time>2014-02-09T10:06:24Z</time>
      </trkpt>
      <trkpt lat="43.535888" lon="1.574509">
        <ele>201.0</ele>
        <time>2014-02-09T10:06:39Z</time>
      </trkpt>
      <trkpt lat="43.535796" lon="1.574429">
        <ele>202.7</ele>
        <time>2014-02-09T10:06:52Z</time>
      </trkpt>
      <trkpt lat="43.535708" lon="1.574375">
        <ele>204.3</ele>
        <time>2014-02-09T10:07:04Z</time>
      </trkpt>
      <trkpt lat="43.535625" lon="1.574314">
        <ele>205.9</ele>
        <time>2014-02-09T10:07:18Z</time>
      </trkpt>
      <trkpt lat="43.535537" lon="1.574246">
        <ele>208.0</ele>
        <time>2014-02-09T10:07:35Z</time>
      </trkpt>
      <trkpt lat="43.535433" lon="1.574168">
        <ele>209.6</ele>
        <time>2014-02-09T10:07:49Z</time>
      </trkpt>
      <trkpt lat="43.535334" lon="1.574136">
        <ele>211.1</ele>
        <time>2014-02-09T10:08:03Z</time>
      </trkpt>
      <trkpt lat="43.535237" lon="1.574098">
        <ele>212.5</ele>
        <time>2014-02-09T10:08:15Z</time>
      </trkpt>
      <trkpt lat="43.535143" lon="1.574048">
        <ele>213.7</ele>
        <time>2014-02-09T10:08:28Z</time>
      </trkpt>
      <trkpt lat="43.535043" lon="1.574002">
        <ele>215.1</ele>
        <time>2014-02-09T10:08:42Z</time>
      </trkpt>
      <trkpt lat="43.535073" lon="1.573977">
        <ele>216.1</ele>
        <time>2014-02-09T10:09:48Z</time>
      </trkpt>
      <trkpt lat="43.534991" lon="1.573906">
        <ele>216.3</ele>
        <time>2014-02-09T10:10:12Z</time>
      </trkpt>
      <trkpt lat="43.534908" lon="1.573809">
        <ele>217.4</ele>
        <time>2014-02-09T10:10:28Z</time>
      </trkpt>
      <trkpt lat="43.534815" lon="1.573712">
        <ele>218.6</ele>
        <time>2014-02-09T10:10:42Z</time>
      </trkpt>
      <trkpt lat="43.534719" lon="1.573617">
        <ele>219.7</ele>
        <time>2014-02-09T10:10:56Z</time>
      </trkpt>
      <trkpt lat="43.534629" lon="1.573520">
        <ele>220.5</ele>
        <time>2014-02-09T10:11:07Z</time>
      </trkpt>
      <trkpt lat="43.534546" lon="1.573423">
        <ele>221.3</ele>
        <time>2014-02-09T10:11:18Z</time>
      </trkpt>
      <trkpt lat="43.534459" lon="1.573350">
        <ele>222.5</ele>
        <time>2014-02-09T10:11:29Z</time>
      </trkpt>
      <trkpt lat="43.534363" lon="1.573265">
        <ele>223.5</ele>
        <time>2014-02-09T10:11:44Z</time>
      </trkpt>
      <trkpt lat="43.534268" lon="1.573189">
        <ele>224.3</ele>
        <time>2014-02-09T10:11:55Z</time>
      </trkpt>
      <trkpt lat="43.534188" lon="1.573121">
        <ele>224.8</ele>
        <time>2014-02-09T10:12:05Z</time>
      </trkpt>
      <trkpt lat="43.534097" lon="1.573062">
        <ele>225.4</ele>
        <time>2014-02-09T10:12:16Z</time>
      </trkpt>
      <trkpt lat="43.534003" lon="1.573004">
        <ele>225.3</ele>
        <time>2014-02-09T10:12:26Z</time>
      </trkpt>
      <trkpt lat="43.533915" lon="1.572939">
        <ele>224.7</ele>
        <time>2014-02-09T10:12:36Z</time>
      </trkpt>
      <trkpt lat="43.533838" lon="1.572870">
        <ele>223.9</ele>
        <time>2014-02-09T10:12:47Z</time>
      </trkpt>
      <trkpt lat="43.533779" lon="1.572761">
        <ele>223.2</ele>
        <time>2014-02-09T10:12:58Z</time>
      </trkpt>
      <trkpt lat="43.533776" lon="1.572625">
        <ele>222.1</ele>
        <time>2014-02-09T10:13:09Z</time>
      </trkpt>
      <trkpt lat="43.533783" lon="1.572485">
        <ele>221.6</ele>
        <time>2014-02-09T10:13:19Z</time>
      </trkpt>
      <trkpt lat="43.533805" lon="1.572364">
        <ele>220.9</ele>
        <time>2014-02-09T10:13:28Z</time>
      </trkpt>
      <trkpt lat="43.533848" lon="1.572244">
        <ele>220.4</ele>
        <time>2014-02-09T10:13:38Z</time>
      </trkpt>
      <trkpt lat="43.533895" lon="1.572135">
        <ele>220.1</ele>
        <time>2014-02-09T10:13:47Z</time>
      </trkpt>
      <trkpt lat="43.533935" lon="1.572006">
        <ele>219.8</ele>
        <time>2014-02-09T10:13:56Z</time>
      </trkpt>
      <trkpt lat="43.533996" lon="1.571902">
        <ele>219.5</ele>
        <time>2014-02-09T10:14:05Z</time>
      </trkpt>
      <trkpt lat="43.534050" lon="1.571784">
        <ele>219.4</ele>
        <time>2014-02-09T10:14:14Z</time>
      </trkpt>
      <trkpt lat="43.534102" lon="1.571672">
        <ele>219.5</ele>
        <time>2014-02-09T10:14:23Z</time>
      </trkpt>
      <trkpt lat="43.534152" lon="1.571555">
        <ele>219.4</ele>
        <time>2014-02-09T10:14:33Z</time>
      </trkpt>
      <trkpt lat="43.534189" lon="1.571423">
        <ele>219.1</ele>
        <time>2014-02-09T10:14:42Z</time>
      </trkpt>
      <trkpt lat="43.534221" lon="1.571296">
        <ele>218.9</ele>
        <time>2014-02-09T10:14:51Z</time>
      </trkpt>
      <trkpt lat="43.534258" lon="1.571160">
        <ele>218.7</ele>
        <time>2014-02-09T10:15:00Z</time>
      </trkpt>
      <trkpt lat="43.534295" lon="1.571029">
        <ele>218.6</ele>
        <time>2014-02-09T10:15:09Z</time>
      </trkpt>
      <trkpt lat="43.534323" lon="1.570910">
        <ele>218.2</ele>
        <time>2014-02-09T10:15:18Z</time>
      </trkpt>
      <trkpt lat="43.534358" lon="1.570795">
        <ele>218.2</ele>
        <time>2014-02-09T10:15:27Z</time>
      </trkpt>
      <trkpt lat="43.534383" lon="1.570672">
        <ele>218.1</ele>
        <time>2014-02-09T10:15:36Z</time>
      </trkpt>
      <trkpt lat="43.534408" lon="1.570544">
        <ele>217.9</ele>
        <time>2014-02-09T10:15:45Z</time>
      </trkpt>
      <trkpt lat="43.534440" lon="1.570415">
        <ele>217.7</ele>
        <time>2014-02-09T10:15:54Z</time>
      </trkpt>
      <trkpt lat="43.534464" lon="1.570279">
        <ele>217.4</ele>
        <time>2014-02-09T10:16:03Z</time>
      </trkpt>
      <trkpt lat="43.534486" lon="1.570157">
        <ele>217.1</ele>
        <time>2014-02-09T10:16:12Z</time>
      </trkpt>
      <trkpt lat="43.534505" lon="1.570040">
        <ele>216.6</ele>
        <time>2014-02-09T10:16:21Z</time>
      </trkpt>
      <trkpt lat="43.534523" lon="1.569910">
        <ele>216.6</ele>
        <time>2014-02-09T10:16:30Z</time>
      </trkpt>
      <trkpt lat="43.534526" lon="1.569789">
        <ele>216.5</ele>
        <time>2014-02-09T10:16:38Z</time>
      </trkpt>
      <trkpt lat="43.534549" lon="1.569665">
        <ele>216.0</ele>
        <time>2014-02-09T10:16:46Z</time>
      </trkpt>
      <trkpt lat="43.534571" lon="1.569540">
        <ele>215.6</ele>
        <time>2014-02-09T10:16:54Z</time>
      </trkpt>
      <trkpt lat="43.534593" lon="1.569422">
        <ele>215.3</ele>
        <time>2014-02-09T10:17:02Z</time>
      </trkpt>
      <trkpt lat="43.534615" lon="1.569292">
        <ele>215.3</ele>
        <time>2014-02-09T10:17:11Z</time>
      </trkpt>
      <trkpt lat="43.534641" lon="1.569169">
        <ele>215.2</ele>
        <time>2014-02-09T10:17:20Z</time>
      </trkpt>
      <trkpt lat="43.534666" lon="1.569050">
        <ele>215.1</ele>
        <time>2014-02-09T10:17:28Z</time>
      </trkpt>
      <trkpt lat="43.534704" lon="1.568935">
        <ele>215.1</ele>
        <time>2014-02-09T10:17:36Z</time>
      </trkpt>
      <trkpt lat="43.534765" lon="1.568841">
        <ele>214.7</ele>
        <time>2014-02-09T10:17:44Z</time>
      </trkpt>
      <trkpt lat="43.534836" lon="1.568753">
        <ele>214.4</ele>
        <time>2014-02-09T10:17:52Z</time>
      </trkpt>
      <trkpt lat="43.534895" lon="1.568652">
        <ele>214.1</ele>
        <time>2014-02-09T10:18:00Z</time>
      </trkpt>
      <trkpt lat="43.534959" lon="1.568537">
        <ele>214.1</ele>
        <time>2014-02-09T10:18:09Z</time>
      </trkpt>
      <trkpt lat="43.535018" lon="1.568433">
        <ele>213.6</ele>
        <time>2014-02-09T10:18:18Z</time>
      </trkpt>
      <trkpt lat="43.535079" lon="1.568321">
        <ele>213.2</ele>
        <time>2014-02-09T10:18:28Z</time>
      </trkpt>
      <trkpt lat="43.535131" lon="1.568192">
        <ele>213.0</ele>
        <time>2014-02-09T10:18:38Z</time>
      </trkpt>
      <trkpt lat="43.535193" lon="1.568078">
        <ele>212.4</ele>
        <time>2014-02-09T10:18:48Z</time>
      </trkpt>
      <trkpt lat="43.535253" lon="1.567967">
        <ele>212.2</ele>
        <time>2014-02-09T10:18:58Z</time>
      </trkpt>
      <trkpt lat="43.535325" lon="1.567839">
        <ele>211.9</ele>
        <time>2014-02-09T10:19:09Z</time>
      </trkpt>
      <trkpt lat="43.535376" lon="1.567720">
        <ele>211.9</ele>
        <time>2014-02-09T10:19:19Z</time>
      </trkpt>
      <trkpt lat="43.535452" lon="1.567612">
        <ele>211.5</ele>
        <time>2014-02-09T10:19:30Z</time>
      </trkpt>
      <trkpt lat="43.535530" lon="1.567483">
        <ele>211.3</ele>
        <time>2014-02-09T10:19:41Z</time>
      </trkpt>
      <trkpt lat="43.535593" lon="1.567367">
        <ele>210.9</ele>
        <time>2014-02-09T10:20:03Z</time>
      </trkpt>
      <trkpt lat="43.535682" lon="1.567406">
        <ele>210.8</ele>
        <time>2014-02-09T10:21:05Z</time>
      </trkpt>
      <trkpt lat="43.535776" lon="1.567466">
        <ele>210.7</ele>
        <time>2014-02-09T10:21:17Z</time>
      </trkpt>
      <trkpt lat="43.535897" lon="1.567555">
        <ele>210.4</ele>
        <time>2014-02-09T10:21:33Z</time>
      </trkpt>
      <trkpt lat="43.536018" lon="1.567643">
        <ele>209.5</ele>
        <time>2014-02-09T10:21:49Z</time>
      </trkpt>
      <trkpt lat="43.536162" lon="1.567713">
        <ele>209.1</ele>
        <time>2014-02-09T10:22:02Z</time>
      </trkpt>
      <trkpt lat="43.536285" lon="1.567715">
        <ele>208.8</ele>
        <time>2014-02-09T10:22:15Z</time>
      </trkpt>
      <trkpt lat="43.536407" lon="1.567698">
        <ele>208.5</ele>
        <time>2014-02-09T10:22:28Z</time>
      </trkpt>
      <trkpt lat="43.536550" lon="1.567675">
        <ele>208.0</ele>
        <time>2014-02-09T10:22:43Z</time>
      </trkpt>
      <trkpt lat="43.536661" lon="1.567629">
        <ele>207.2</ele>
        <time>2014-02-09T10:22:55Z</time>
      </trkpt>
      <trkpt lat="43.536776" lon="1.567594">
        <ele>206.6</ele>
        <time>2014-02-09T10:23:07Z</time>
      </trkpt>
      <trkpt lat="43.536889" lon="1.567554">
        <ele>206.2</ele>
        <time>2014-02-09T10:23:19Z</time>
      </trkpt>
      <trkpt lat="43.537036" lon="1.567569">
        <ele>205.7</ele>
        <time>2014-02-09T10:23:31Z</time>
      </trkpt>
      <trkpt lat="43.537170" lon="1.567602">
        <ele>205.4</ele>
        <time>2014-02-09T10:23:42Z</time>
      </trkpt>
      <trkpt lat="43.537285" lon="1.567659">
        <ele>205.1</ele>
        <time>2014-02-09T10:23:53Z</time>
      </trkpt>
      <trkpt lat="43.537388" lon="1.567706">
        <ele>205.0</ele>
        <time>2014-02-09T10:24:03Z</time>
      </trkpt>
      <trkpt lat="43.537511" lon="1.567759">
        <ele>204.6</ele>
        <time>2014-02-09T10:24:15Z</time>
      </trkpt>
      <trkpt lat="43.537633" lon="1.567800">
        <ele>204.3</ele>
        <time>2014-02-09T10:24:28Z</time>
      </trkpt>
      <trkpt lat="43.537772" lon="1.567834">
        <ele>203.8</ele>
        <time>2014-02-09T10:24:40Z</time>
      </trkpt>
      <trkpt lat="43.537891" lon="1.567862">
        <ele>203.4</ele>
        <time>2014-02-09T10:24:52Z</time>
      </trkpt>
      <trkpt lat="43.538015" lon="1.567916">
        <ele>203.1</ele>
        <time>2014-02-09T10:25:03Z</time>
      </trkpt>
      <trkpt lat="43.538155" lon="1.567999">
        <ele>202.2</ele>
        <time>2014-02-09T10:25:16Z</time>
      </trkpt>
      <trkpt lat="43.538277" lon="1.568082">
        <ele>201.5</ele>
        <time>2014-02-09T10:25:29Z</time>
      </trkpt>
      <trkpt lat="43.538429" lon="1.568199">
        <ele>201.2</ele>
        <time>2014-02-09T10:25:42Z</time>
      </trkpt>
      <trkpt lat="43.538553" lon="1.568275">
        <ele>201.0</ele>
        <time>2014-02-09T10:25:53Z</time>
      </trkpt>
      <trkpt lat="43.538652" lon="1.568298">
        <ele>200.2</ele>
        <time>2014-02-09T10:26:05Z</time>
      </trkpt>
      <trkpt lat="43.538796" lon="1.568302">
        <ele>200.1</ele>
        <time>2014-02-09T10:26:17Z</time>
      </trkpt>
      <trkpt lat="43.538894" lon="1.568292">
        <ele>199.8</ele>
        <time>2014-02-09T10:26:39Z</time>
      </trkpt>
      <trkpt lat="43.539007" lon="1.568267">
        <ele>200.0</ele>
        <time>2014-02-09T10:26:54Z</time>
      </trkpt>
      <trkpt lat="43.539150" lon="1.568260">
        <ele>200.2</ele>
        <time>2014-02-09T10:27:08Z</time>
      </trkpt>
      <trkpt lat="43.539299" lon="1.568259">
        <ele>200.3</ele>
        <time>2014-02-09T10:27:22Z</time>
      </trkpt>
      <trkpt lat="43.539420" lon="1.568256">
        <ele>200.7</ele>
        <time>2014-02-09T10:27:33Z</time>
      </trkpt>
      <trkpt lat="43.539529" lon="1.568227">
        <ele>201.1</ele>
        <time>2014-02-09T10:27:43Z</time>
      </trkpt>
      <trkpt lat="43.539639" lon="1.568217">
        <ele>201.6</ele>
        <time>2014-02-09T10:27:56Z</time>
      </trkpt>
      <trkpt lat="43.539778" lon="1.568197">
        <ele>202.4</ele>
        <time>2014-02-09T10:28:10Z</time>
      </trkpt>
      <trkpt lat="43.539917" lon="1.568186">
        <ele>202.7</ele>
        <time>2014-02-09T10:28:22Z</time>
      </trkpt>
      <trkpt lat="43.540047" lon="1.568151">
        <ele>203.3</ele>
        <time>2014-02-09T10:28:35Z</time>
      </trkpt>
      <trkpt lat="43.540155" lon="1.568073">
        <ele>203.6</ele>
        <time>2014-02-09T10:28:46Z</time>
      </trkpt>
      <trkpt lat="43.540294" lon="1.568019">
        <ele>204.7</ele>
        <time>2014-02-09T10:29:03Z</time>
      </trkpt>
      <trkpt lat="43.540429" lon="1.567973">
        <ele>205.1</ele>
        <time>2014-02-09T10:29:14Z</time>
      </trkpt>
      <trkpt lat="43.540563" lon="1.567953">
        <ele>205.9</ele>
        <time>2014-02-09T10:29:26Z</time>
      </trkpt>
      <trkpt lat="43.540657" lon="1.567850">
        <ele>205.7</ele>
        <time>2014-02-09T10:29:38Z</time>
      </trkpt>
      <trkpt lat="43.540734" lon="1.567749">
        <ele>205.5</ele>
        <time>2014-02-09T10:29:50Z</time>
      </trkpt>
      <trkpt lat="43.540825" lon="1.567645">
        <ele>205.2</ele>
        <time>2014-02-09T10:30:02Z</time>
      </trkpt>
      <trkpt lat="43.540900" lon="1.567525">
        <ele>204.5</ele>
        <time>2014-02-09T10:30:14Z</time>
      </trkpt>
      <trkpt lat="43.540969" lon="1.567409">
        <ele>204.4</ele>
        <time>2014-02-09T10:30:26Z</time>
      </trkpt>
      <trkpt lat="43.541051" lon="1.567364">
        <ele>204.1</ele>
        <time>2014-02-09T10:30:40Z</time>
      </trkpt>
      <trkpt lat="43.541056" lon="1.567255">
        <ele>204.2</ele>
        <time>2014-02-09T10:31:05Z</time>
      </trkpt>
      <trkpt lat="43.541129" lon="1.567120">
        <ele>203.6</ele>
        <time>2014-02-09T10:32:28Z</time>
      </trkpt>
      <trkpt lat="43.541229" lon="1.567029">
        <ele>203.0</ele>
        <time>2014-02-09T10:32:40Z</time>
      </trkpt>
      <trkpt lat="43.541273" lon="1.566923">
        <ele>202.7</ele>
        <time>2014-02-09T10:33:13Z</time>
      </trkpt>
      <trkpt lat="43.541326" lon="1.566800">
        <ele>202.3</ele>
        <time>2014-02-09T10:33:23Z</time>
      </trkpt>
      <trkpt lat="43.541386" lon="1.566683">
        <ele>201.7</ele>
        <time>2014-02-09T10:33:33Z</time>
      </trkpt>
      <trkpt lat="43.541469" lon="1.566603">
        <ele>201.1</ele>
        <time>2014-02-09T10:33:43Z</time>
      </trkpt>
      <trkpt lat="43.541476" lon="1.566475">
        <ele>199.9</ele>
        <time>2014-02-09T10:34:15Z</time>
      </trkpt>
      <trkpt lat="43.541517" lon="1.566350">
        <ele>199.1</ele>
        <time>2014-02-09T10:34:26Z</time>
      </trkpt>
      <trkpt lat="43.541533" lon="1.566210">
        <ele>198.0</ele>
        <time>2014-02-09T10:34:38Z</time>
      </trkpt>
      <trkpt lat="43.541554" lon="1.566068">
        <ele>198.2</ele>
        <time>2014-02-09T10:35:00Z</time>
      </trkpt>
      <trkpt lat="43.541533" lon="1.565931">
        <ele>199.1</ele>
        <time>2014-02-09T10:35:14Z</time>
      </trkpt>
      <trkpt lat="43.541441" lon="1.565859">
        <ele>198.9</ele>
        <time>2014-02-09T10:35:28Z</time>
      </trkpt>
      <trkpt lat="43.541442" lon="1.565740">
        <ele>198.0</ele>
        <time>2014-02-09T10:36:48Z</time>
      </trkpt>
      <trkpt lat="43.541540" lon="1.565668">
        <ele>198.5</ele>
        <time>2014-02-09T10:37:15Z</time>
      </trkpt>
      <trkpt lat="43.541653" lon="1.565630">
        <ele>199.4</ele>
        <time>2014-02-09T10:37:39Z</time>
      </trkpt>
      <trkpt lat="43.541734" lon="1.565604">
        <ele>199.2</ele>
        <time>2014-02-09T10:38:04Z</time>
      </trkpt>
      <trkpt lat="43.541796" lon="1.565497">
        <ele>198.2</ele>
        <time>2014-02-09T10:38:16Z</time>
      </trkpt>
      <trkpt lat="43.541925" lon="1.565552">
        <ele>197.9</ele>
        <time>2014-02-09T10:38:27Z</time>
      </trkpt>
      <trkpt lat="43.542023" lon="1.565649">
        <ele>196.9</ele>
        <time>2014-02-09T10:40:29Z</time>
      </trkpt>
      <trkpt lat="43.542026" lon="1.565782">
        <ele>197.3</ele>
        <time>2014-02-09T10:41:37Z</time>
      </trkpt>
      <trkpt lat="43.542037" lon="1.565946">
        <ele>197.1</ele>
        <time>2014-02-09T10:41:49Z</time>
      </trkpt>
      <trkpt lat="43.541996" lon="1.566094">
        <ele>197.1</ele>
        <time>2014-02-09T10:42:00Z</time>
      </trkpt>
    </trkseg>
  </trk>
</gpx>

